Time;durP1;ratioP1;P1;durP2;ratioP2;P2;SDS_P1;SDS_P2;PMS_P1;PMS_P2;Temp;Humidity;BMP_temperature;BMP_pressure;BME280_temperature;BME280_humidity;BME280_pressure;Samples;Min_cycle;Max_cycle;Signal;HPM_P1;HPM_P2
2022/04/28 08:36:39;;;;;;;6.97;3.70;;;19.20;91.00;;;;;;2581721;23;20237;-66
2022/04/28 08:39:06;;;;;;;4.97;3.45;;;18.90;90.90;;;;;;4930550;28;20225;-67
2022/04/28 08:41:35;;;;;;;5.45;3.15;;;19.00;90.60;;;;;;4929987;29;20210;-66
2022/04/28 08:44:05;;;;;;;6.28;3.70;;;19.70;90.60;;;;;;4933338;29;20592;-66
2022/04/28 08:49:17;;;;;;;7.40;3.40;;;20.20;90.30;;;;;;4942438;29;20323;-69
2022/04/28 08:51:46;;;;;;;7.18;3.50;;;20.50;89.10;;;;;;4935012;29;20220;-69
2022/04/28 08:54:15;;;;;;;5.45;3.58;;;20.30;90.10;;;;;;4947823;28;20227;-68
2022/04/28 08:56:42;;;;;;;8.52;3.72;;;20.20;89.90;;;;;;4917470;29;20217;-66
2022/04/28 08:59:09;;;;;;;6.70;3.55;;;20.50;89.10;;;;;;4934558;29;20311;-66
2022/04/28 09:01:36;;;;;;;8.85;4.13;;;20.50;88.00;;;;;;4927842;29;20228;-67
2022/04/28 09:04:05;;;;;;;7.82;3.83;;;19.90;89.30;;;;;;4930122;29;20221;-67
2022/04/28 09:06:34;;;;;;;7.18;3.80;;;19.20;90.50;;;;;;4931508;29;20205;-65
2022/04/28 09:09:05;;;;;;;8.10;3.70;;;19.10;90.40;;;;;;4919378;29;20213;-66
2022/04/28 09:11:34;;;;;;;6.70;3.53;;;18.50;91.40;;;;;;4915928;29;20344;-65
2022/04/28 09:14:11;;;;;;;7.10;3.50;;;18.80;91.20;;;;;;4918753;29;20225;-65
2022/04/28 09:16:41;;;;;;;7.47;3.65;;;18.50;91.30;;;;;;4924495;29;20204;-66
2022/04/28 09:19:07;;;;;;;7.15;3.33;;;18.40;91.50;;;;;;4921284;29;20202;-66
2022/04/28 09:21:35;;;;;;;7.28;3.75;;;18.40;91.70;;;;;;4924632;29;20197;-66
2022/04/28 09:24:04;;;;;;;5.80;3.53;;;18.60;91.70;;;;;;4921227;29;20815;-65
2022/04/28 09:26:33;;;;;;;6.70;3.47;;;18.40;91.50;;;;;;4928360;29;20232;-66
2022/04/28 09:29:02;;;;;;;6.03;3.55;;;18.50;91.70;;;;;;4936107;29;20205;-66
2022/04/28 09:31:31;;;;;;;5.05;3.22;;;18.80;91.80;;;;;;4935703;29;20656;-66
2022/04/28 09:34:05;;;;;;;6.20;3.60;;;19.10;91.30;;;;;;4935782;29;20233;-65
2022/04/28 09:36:32;;;;;;;5.40;3.25;;;19.10;91.20;;;;;;4933495;29;20224;-67
2022/04/28 09:38:59;;;;;;;6.32;3.65;;;19.10;91.20;;;;;;4934102;29;20679;-67
2022/04/28 09:44:12;;;;;;;8.82;3.60;;;19.70;90.90;;;;;;4925468;29;20235;-66
2022/04/28 09:46:43;;;;;;;6.57;3.28;;;19.30;90.30;;;;;;4915845;29;20673;-67
2022/04/28 09:49:10;;;;;;;8.52;3.67;;;18.60;91.00;;;;;;4914039;29;20210;-66
2022/04/28 09:51:39;;;;;;;8.67;4.13;;;18.20;92.10;;;;;;4916169;29;20210;-65
2022/04/28 09:54:08;;;;;;;10.37;4.00;;;17.90;92.30;;;;;;4915826;29;20234;-67
2022/04/28 09:56:37;;;;;;;6.43;3.53;;;18.00;92.40;;;;;;4916008;29;20214;-66
2022/04/28 09:59:06;;;;;;;7.43;3.77;;;17.80;93.10;;;;;;4916352;29;20213;-66
2022/04/28 10:01:33;;;;;;;5.97;3.50;;;17.90;93.20;;;;;;4918023;29;20209;-66
2022/04/28 10:04:00;;;;;;;5.87;3.63;;;17.50;92.90;;;;;;4934066;29;20229;-67
2022/04/28 10:06:27;;;;;;;6.97;4.00;;;17.40;93.10;;;;;;4934066;29;20239;-68
2022/04/28 10:08:55;;;;;;;6.17;3.70;;;17.20;94.10;;;;;;4933849;29;20256;-65
2022/04/28 10:11:24;;;;;;;7.00;3.63;;;17.10;93.90;;;;;;4934749;29;20620;-66
2022/04/28 10:13:53;;;;;;;7.27;3.70;;;16.90;93.40;;;;;;4935142;29;20229;-66
2022/04/28 10:16:22;;;;;;;7.60;4.10;;;17.20;94.30;;;;;;4934890;29;20664;-66
2022/04/28 10:18:53;;;;;;;7.57;3.70;;;17.50;93.40;;;;;;4934686;29;20218;-67
2022/04/28 10:21:23;;;;;;;9.40;3.63;;;17.50;93.10;;;;;;4935162;29;20212;-66
2022/04/28 10:32:36;;;;;;;6.93;3.63;;;17.00;93.30;;;;;;4915080;29;20343;-71
2022/04/28 10:35:06;;;;;;;7.90;4.17;;;17.00;93.20;;;;;;4925694;29;20224;-65
2022/04/28 10:37:34;;;;;;;8.47;3.87;;;17.00;93.30;;;;;;4924219;29;20746;-64
2022/04/28 10:40:03;;;;;;;8.10;3.93;;;16.90;93.30;;;;;;4919641;29;20205;-65
2022/04/28 10:43:01;;;;;;;5.80;3.43;;;17.30;93.20;;;;;;4915249;29;20229;-64
2022/04/28 10:45:40;;;;;;;11.50;3.80;;;17.40;93.10;;;;;;4915946;29;20214;-67
2022/04/28 10:48:28;;;;;;;6.67;3.53;;;17.30;92.80;;;;;;4915617;29;20256;-66
2022/04/28 10:51:13;;;;;;;9.40;4.13;;;17.30;93.10;;;;;;4920490;29;20230;-65
2022/04/28 10:54:01;;;;;;;6.20;3.83;;;17.30;92.90;;;;;;4927543;29;20225;-65
2022/04/28 10:56:29;;;;;;;6.20;3.70;;;17.60;92.70;;;;;;4933685;29;20213;-67
2022/04/28 10:59:23;;;;;;;6.07;4.00;;;17.40;92.60;;;;;;4931822;29;20215;-74
2022/04/28 11:01:51;;;;;;;7.50;3.80;;;17.20;92.70;;;;;;4922912;29;20287;-75
2022/04/28 11:04:23;;;;;;;6.40;3.60;;;17.40;93.60;;;;;;4937347;28;20232;-74
2022/04/28 11:06:55;;;;;;;8.80;4.20;;;17.60;92.50;;;;;;4930354;29;20206;-72
2022/04/28 11:09:32;;;;;;;6.83;3.50;;;17.70;92.40;;;;;;4935614;29;20204;-71
2022/04/28 11:12:08;;;;;;;7.27;3.77;;;17.40;92.80;;;;;;4940996;28;20231;-71
2022/04/28 11:14:45;;;;;;;9.10;4.00;;;17.50;93.00;;;;;;4940233;28;20220;-71
2022/04/28 11:17:13;;;;;;;6.10;3.00;;;17.60;92.80;;;;;;4937125;29;20196;-73
2022/04/28 11:19:41;;;;;;;6.20;3.90;;;17.80;92.60;;;;;;4922878;29;20657;-72
2022/04/28 11:22:09;;;;;;;5.37;3.43;;;17.80;92.20;;;;;;4916997;29;20213;-73
2022/04/28 11:24:40;;;;;;;6.40;3.70;;;18.00;92.00;;;;;;4916746;29;20261;-73
2022/04/28 11:27:07;;;;;;;8.50;4.00;;;17.90;92.10;;;;;;4916372;29;20213;-72
2022/04/28 11:29:36;;;;;;;6.67;4.27;;;18.10;92.90;;;;;;4923833;29;20209;-72
2022/04/28 11:32:04;;;;;;;5.97;3.70;;;18.20;92.30;;;;;;4936056;29;20209;-71
2022/04/28 11:34:33;;;;;;;6.03;3.27;;;18.20;92.10;;;;;;4935624;29;20256;-71
2022/04/28 11:37:13;;;;;;;5.70;3.90;;;18.00;92.10;;;;;;4935959;29;20680;-72
2022/04/28 11:39:41;;;;;;;7.07;3.93;;;17.90;92.20;;;;;;4935018;29;20208;-71
2022/04/28 11:42:10;;;;;;;6.40;3.60;;;18.10;92.40;;;;;;4937422;29;20240;-72
2022/04/28 11:44:45;;;;;;;7.43;3.50;;;18.30;92.00;;;;;;4936008;29;20794;-73
2022/04/28 11:47:12;;;;;;;6.13;3.43;;;18.30;92.00;;;;;;4936629;29;20212;-72
2022/04/28 11:49:40;;;;;;;5.20;3.50;;;18.10;92.30;;;;;;4935963;29;20209;-75
2022/04/28 11:52:21;;;;;;;5.87;3.80;;;18.50;92.60;;;;;;4937611;29;20676;-73
2022/04/28 11:54:51;;;;;;;5.60;3.50;;;18.20;92.10;;;;;;4937204;29;20591;-75
2022/04/28 11:57:19;;;;;;;6.50;3.60;;;18.10;92.50;;;;;;4937254;29;20232;-72
2022/04/28 11:59:47;;;;;;;7.17;4.07;;;18.10;92.30;;;;;;4930568;29;20212;-71
2022/04/28 12:02:25;;;;;;;5.90;3.40;;;18.10;92.80;;;;;;4931231;29;20209;-72
2022/04/28 12:04:53;;;;;;;7.90;3.60;;;18.20;92.40;;;;;;4935029;29;20315;-73
2022/04/28 12:07:21;;;;;;;7.47;3.83;;;18.40;92.40;;;;;;4943684;28;20201;-74
2022/04/28 12:15:21;;;;;;;7.18;3.72;;;18.50;92.20;;;;;;4918099;29;20236;-70
2022/04/28 12:20:53;;;;;;;5.93;3.83;;;18.40;91.90;;;;;;4918094;29;20208;-72
2022/04/28 12:23:39;;;;;;;5.73;3.50;;;18.50;91.90;;;;;;4924884;29;20252;-72
2022/04/28 12:26:08;;;;;;;6.30;3.30;;;18.40;92.00;;;;;;4937049;29;20220;-70
2022/04/28 12:28:38;;;;;;;5.40;3.60;;;18.70;91.50;;;;;;4936755;29;20288;-73
2022/04/28 12:31:05;;;;;;;8.13;4.00;;;18.70;91.40;;;;;;4936648;29;20635;-75
2022/04/28 12:33:34;;;;;;;6.77;3.87;;;18.70;91.40;;;;;;4935881;29;20232;-73
2022/04/28 12:36:03;;;;;;;5.77;3.47;;;18.80;90.60;;;;;;4935359;29;20208;-73
2022/04/28 12:38:33;;;;;;;5.33;3.40;;;18.90;91.20;;;;;;4935961;29;20410;-72
2022/04/28 12:41:13;;;;;;;6.37;3.60;;;19.00;91.00;;;;;;4935840;29;20247;-73
2022/04/28 12:43:42;;;;;;;8.98;3.30;;;18.90;91.50;;;;;;4936669;29;20315;-73
2022/04/28 12:46:10;;;;;;;5.73;3.47;;;18.70;91.00;;;;;;4936653;29;20272;-73
2022/04/28 12:48:39;;;;;;;6.33;3.50;;;18.80;90.60;;;;;;4936133;29;20213;-72
2022/04/28 12:51:18;;;;;;;8.47;3.00;;;18.80;90.60;;;;;;4921183;29;20272;-71
2022/04/28 12:53:46;;;;;;;4.90;3.00;;;18.90;91.00;;;;;;4928386;29;20228;-73
2022/04/28 12:56:15;;;;;;;6.40;3.43;;;18.90;90.60;;;;;;4928979;29;20204;-70
2022/04/28 12:58:43;;;;;;;6.50;4.17;;;18.90;91.00;;;;;;4931895;29;20656;-70
2022/04/28 13:01:12;;;;;;;7.43;3.80;;;18.80;90.70;;;;;;4928541;29;20209;-68
2022/04/28 13:03:40;;;;;;;6.03;3.60;;;18.90;90.60;;;;;;4922189;29;20221;-75
2022/04/28 13:06:08;;;;;;;6.27;3.73;;;18.90;90.90;;;;;;4931110;29;20206;-72
2022/04/28 13:08:36;;;;;;;5.20;3.70;;;18.80;91.10;;;;;;4929488;29;20264;-73
2022/04/28 13:11:05;;;;;;;6.45;3.90;;;19.00;90.70;;;;;;4934551;29;20284;-73
2022/04/28 13:13:31;;;;;;;7.70;3.70;;;18.80;90.50;;;;;;4925597;29;20236;-75
2022/04/28 13:15:58;;;;;;;5.77;3.37;;;18.60;91.20;;;;;;4935844;29;20209;-71
2022/04/28 13:18:25;;;;;;;5.30;3.40;;;18.70;91.40;;;;;;4919153;29;20209;-73
2022/04/28 13:20:52;;;;;;;6.83;3.37;;;18.80;91.20;;;;;;4931537;29;20208;-73
2022/04/28 13:23:18;;;;;;;4.90;3.00;;;18.80;91.20;;;;;;4934991;29;20204;-72
2022/04/28 13:25:47;;;;;;;5.13;3.60;;;18.90;90.50;;;;;;4932778;29;20331;-70
2022/04/28 13:28:14;;;;;;;7.27;4.00;;;18.80;90.70;;;;;;4914835;29;20220;-74
2022/04/28 13:30:41;;;;;;;5.18;3.33;;;18.60;90.80;;;;;;4915806;29;20588;-75
2022/04/28 13:33:08;;;;;;;8.50;3.60;;;18.80;90.90;;;;;;4916403;29;20687;-72
2022/04/28 13:35:36;;;;;;;6.13;3.83;;;18.80;91.10;;;;;;4915908;29;20607;-69
2022/04/28 13:38:05;;;;;;;5.30;3.42;;;18.90;90.50;;;;;;4924385;29;20268;-75
2022/04/28 13:40:33;;;;;;;5.97;3.20;;;19.00;90.30;;;;;;4935760;29;20341;-73
2022/04/28 13:43:01;;;;;;;6.70;3.40;;;18.90;90.60;;;;;;4936039;29;20255;-73
2022/04/28 13:45:28;;;;;;;6.70;3.63;;;19.00;90.90;;;;;;4935574;29;20219;-73
2022/04/28 13:47:55;;;;;;;6.85;3.60;;;19.30;91.00;;;;;;4935245;29;20212;-73
2022/04/28 13:50:22;;;;;;;7.35;3.75;;;19.40;90.80;;;;;;4934864;29;20212;-72
2022/04/28 13:52:49;;;;;;;8.82;4.28;;;19.40;91.30;;;;;;4935018;29;20572;-73
2022/04/28 13:55:17;;;;;;;7.90;3.40;;;19.50;90.70;;;;;;4935118;29;20272;-70
2022/04/28 13:57:44;;;;;;;6.53;3.47;;;19.70;90.50;;;;;;4934367;29;20304;-71
2022/04/28 14:00:13;;;;;;;4.53;3.47;;;19.70;90.50;;;;;;4934303;29;20208;-72
2022/04/28 14:02:40;;;;;;;5.78;3.45;;;19.80;89.20;;;;;;4934687;29;20256;-72
2022/04/28 14:05:08;;;;;;;7.63;3.30;;;19.80;88.30;;;;;;4933589;29;20221;-72
2022/04/28 14:07:36;;;;;;;8.98;4.43;;;19.70;88.80;;;;;;4934487;29;20208;-72
2022/04/28 14:10:04;;;;;;;6.88;4.20;;;19.70;89.10;;;;;;4932659;29;20205;-72
2022/04/28 14:12:31;;;;;;;6.47;4.10;;;19.50;90.40;;;;;;4933743;29;20782;-73
2022/04/28 14:14:58;;;;;;;6.23;3.57;;;19.40;90.40;;;;;;4934809;29;20236;-73
2022/04/28 14:17:26;;;;;;;6.70;3.70;;;19.40;90.00;;;;;;4933743;29;20205;-72
2022/04/28 14:19:53;;;;;;;6.77;3.43;;;19.40;90.50;;;;;;4934498;29;20316;-72
2022/04/28 14:22:20;;;;;;;6.57;3.92;;;19.50;90.70;;;;;;4932323;29;20209;-73
2022/04/28 14:24:48;;;;;;;6.95;4.07;;;19.30;90.20;;;;;;4934705;29;20217;-73
2022/04/28 14:27:15;;;;;;;7.82;4.07;;;19.10;90.80;;;;;;4934116;29;20205;-73
2022/04/28 14:29:42;;;;;;;5.93;3.60;;;19.20;91.00;;;;;;4931487;29;20201;-73
2022/04/28 14:32:09;;;;;;;5.60;3.50;;;19.10;91.30;;;;;;4932263;29;20584;-73
2022/04/28 14:34:37;;;;;;;6.20;3.65;;;19.20;91.40;;;;;;4916495;29;20259;-72
2022/04/28 14:37:06;;;;;;;4.45;3.22;;;19.50;90.80;;;;;;4930119;29;20224;-73
2022/04/28 14:39:34;;;;;;;5.30;3.60;;;19.40;90.30;;;;;;4939210;29;20204;-73
2022/04/28 14:42:01;;;;;;;5.22;3.45;;;19.20;90.20;;;;;;4937607;29;20208;-73
2022/04/28 14:44:28;;;;;;;6.65;3.92;;;19.40;90.10;;;;;;4938852;29;20233;-72
2022/04/28 14:46:55;;;;;;;7.25;4.07;;;19.60;89.30;;;;;;4937197;29;20220;-72
2022/04/28 14:54:59;;;;;;;6.78;3.90;;;19.60;90.60;;;;;;4937703;29;20233;-73
2022/04/28 14:57:27;;;;;;;6.33;4.00;;;19.70;89.70;;;;;;4938598;29;20657;-73
2022/04/28 14:59:55;;;;;;;5.47;3.40;;;19.70;89.10;;;;;;4938702;29;20213;-72
2022/04/28 15:02:22;;;;;;;7.95;3.83;;;19.80;89.50;;;;;;4938157;29;20208;-73
2022/04/28 15:04:49;;;;;;;7.45;3.58;;;19.80;90.00;;;;;;4938376;29;20235;-72
2022/04/28 15:07:17;;;;;;;6.72;3.45;;;19.70;90.00;;;;;;4938044;29;20215;-72
2022/04/28 15:09:46;;;;;;;5.60;3.90;;;19.50;88.30;;;;;;4938136;29;20307;-72
2022/04/28 15:12:14;;;;;;;7.95;3.80;;;19.30;89.30;;;;;;4937418;29;20704;-72
2022/04/28 15:14:41;;;;;;;6.43;3.90;;;19.20;90.00;;;;;;4937767;29;20228;-73
2022/04/28 15:17:11;;;;;;;6.57;3.95;;;19.30;90.10;;;;;;4938766;29;20209;-72
2022/04/28 15:19:38;;;;;;;5.90;3.67;;;19.40;90.20;;;;;;4938529;29;20204;-72
2022/04/28 15:22:06;;;;;;;9.95;3.45;;;19.30;90.50;;;;;;4937644;29;20686;-72
2022/04/28 15:24:35;;;;;;;7.50;4.30;;;19.40;90.90;;;;;;4938336;29;20229;-72
2022/04/28 15:27:02;;;;;;;6.97;3.55;;;19.60;90.40;;;;;;4938023;29;20204;-72
2022/04/28 15:29:29;;;;;;;7.22;3.50;;;19.80;90.10;;;;;;4938135;29;20219;-72
2022/04/28 15:31:56;;;;;;;6.40;3.63;;;19.80;89.80;;;;;;4937534;29;20236;-72
2022/04/28 15:34:23;;;;;;;5.60;3.77;;;19.60;90.70;;;;;;4937865;29;20225;-72
2022/04/28 15:36:50;;;;;;;7.85;3.60;;;19.30;90.30;;;;;;4937783;29;20223;-72
2022/04/28 15:39:19;;;;;;;6.20;4.00;;;19.20;90.40;;;;;;4934751;29;20236;-71
2022/04/28 15:41:48;;;;;;;7.60;4.20;;;19.30;90.40;;;;;;4927132;29;20215;-72
2022/04/28 15:44:15;;;;;;;6.73;3.80;;;19.30;90.40;;;;;;4933761;29;20252;-71
2022/04/28 15:46:42;;;;;;;6.80;4.00;;;19.20;90.40;;;;;;4932087;29;20216;-73
2022/04/28 15:49:09;;;;;;;6.63;3.70;;;19.20;90.80;;;;;;4935987;29;20213;-73
2022/04/28 15:51:37;;;;;;;8.00;3.90;;;19.20;90.70;;;;;;4933066;29;20251;-72
2022/04/28 15:54:05;;;;;;;8.33;4.27;;;19.20;90.70;;;;;;4933021;29;20229;-72
2022/04/28 15:56:32;;;;;;;5.93;3.63;;;19.30;90.40;;;;;;4934049;29;20719;-73
2022/04/28 15:59:00;;;;;;;6.55;3.97;;;19.50;90.60;;;;;;4936403;29;20216;-72
2022/04/28 16:01:28;;;;;;;6.40;3.88;;;19.50;90.50;;;;;;4933269;29;20214;-72
2022/04/28 16:03:55;;;;;;;7.47;3.30;;;19.30;90.40;;;;;;4931736;29;20243;-72
2022/04/28 16:06:23;;;;;;;6.63;3.80;;;19.30;90.20;;;;;;4927557;29;20224;-72
2022/04/28 16:08:50;;;;;;;6.38;3.45;;;19.20;90.20;;;;;;4937314;29;20213;-73
2022/04/28 16:11:17;;;;;;;6.15;3.70;;;18.90;90.80;;;;;;4936685;29;20244;-72
2022/04/28 16:13:46;;;;;;;6.80;3.50;;;19.10;90.40;;;;;;4935555;29;20239;-72
2022/04/28 16:16:15;;;;;;;9.23;3.83;;;19.00;90.20;;;;;;4935911;29;20204;-73
2022/04/28 16:18:42;;;;;;;8.20;4.07;;;19.00;90.10;;;;;;4935755;29;20330;-72
2022/04/28 16:21:09;;;;;;;6.77;3.37;;;18.90;90.10;;;;;;4936419;29;20213;-70
2022/04/28 16:23:37;;;;;;;9.93;5.20;;;19.00;90.70;;;;;;4935130;29;20256;-72
2022/04/28 16:26:04;;;;;;;5.27;3.40;;;18.90;90.60;;;;;;4936969;29;20219;-74
2022/04/28 16:28:32;;;;;;;4.90;3.37;;;18.80;91.20;;;;;;4937162;29;20572;-73
2022/04/28 16:30:59;;;;;;;5.47;2.93;;;18.70;90.80;;;;;;4937457;29;20564;-74
2022/04/28 16:33:27;;;;;;;6.43;3.40;;;18.70;91.00;;;;;;4937030;29;20228;-73
2022/04/28 16:35:54;;;;;;;6.13;3.97;;;18.70;90.90;;;;;;4936679;29;20661;-74
2022/04/28 16:38:21;;;;;;;7.30;3.90;;;18.70;90.60;;;;;;4935972;29;20216;-74
2022/04/28 16:40:48;;;;;;;5.90;3.30;;;18.40;90.80;;;;;;4925226;29;20232;-72
2022/04/28 16:43:16;;;;;;;5.20;3.43;;;18.20;91.20;;;;;;4935231;29;20994;-75
2022/04/28 16:45:43;;;;;;;7.13;3.33;;;18.10;91.20;;;;;;4935878;29;20224;-74
2022/04/28 16:48:10;;;;;;;5.10;3.20;;;18.20;91.00;;;;;;4936101;29;20211;-76
2022/04/28 16:50:38;;;;;;;6.97;3.50;;;18.10;91.20;;;;;;4937223;29;20214;-74
2022/04/28 16:53:05;;;;;;;8.43;4.00;;;18.10;91.20;;;;;;4935881;29;20596;-74
2022/04/28 16:55:32;;;;;;;5.47;3.40;;;18.00;91.50;;;;;;4936772;29;20236;-74
2022/04/28 16:57:59;;;;;;;6.17;2.80;;;18.00;91.70;;;;;;4936716;29;20209;-73
2022/04/28 17:00:26;;;;;;;7.63;3.90;;;18.00;91.80;;;;;;4933904;29;20272;-74
2022/04/28 17:05:38;;;;;;;5.73;3.17;;;18.00;91.60;;;;;;4915905;29;20209;-73
2022/04/28 17:08:05;;;;;;;8.20;3.67;;;18.00;91.60;;;;;;4935903;29;20223;-74
2022/04/28 17:10:32;;;;;;;5.30;3.23;;;17.80;91.70;;;;;;4935611;29;20687;-74
2022/04/28 17:12:59;;;;;;;9.07;3.60;;;17.80;91.50;;;;;;4936069;29;20259;-74
2022/04/28 17:15:26;;;;;;;6.50;3.20;;;17.90;91.60;;;;;;4936574;29;20232;-75
2022/04/28 17:17:53;;;;;;;9.10;6.03;;;17.80;91.70;;;;;;4920914;29;20269;-75
2022/04/28 17:20:20;;;;;;;8.53;4.13;;;17.80;92.00;;;;;;4927906;29;20289;-75
2022/04/28 17:22:49;;;;;;;5.50;3.20;;;17.60;92.00;;;;;;4936171;29;20211;-74
2022/04/28 17:25:16;;;;;;;6.03;3.23;;;17.60;92.20;;;;;;4936047;29;20233;-74
2022/04/28 17:27:43;;;;;;;7.63;3.63;;;17.50;92.40;;;;;;4936015;29;20529;-74
2022/04/28 17:30:11;;;;;;;6.73;3.10;;;17.50;92.50;;;;;;4935053;29;20287;-75
2022/04/28 17:32:38;;;;;;;5.80;3.40;;;17.60;92.30;;;;;;4935506;29;20236;-74
2022/04/28 17:35:06;;;;;;;5.70;3.50;;;17.50;92.60;;;;;;4935525;29;20233;-75
2022/04/28 17:37:33;;;;;;;7.47;3.83;;;17.40;92.30;;;;;;4919501;29;20226;-75
2022/04/28 17:40:02;;;;;;;5.40;3.50;;;17.30;92.70;;;;;;4916418;29;20683;-74
2022/04/28 17:42:28;;;;;;;9.27;3.50;;;17.10;92.80;;;;;;4927495;29;20215;-75
2022/04/28 17:44:55;;;;;;;6.17;3.63;;;17.10;92.70;;;;;;4936046;29;20232;-73
2022/04/28 17:47:22;;;;;;;5.50;3.50;;;17.20;92.80;;;;;;4935590;29;20568;-75
2022/04/28 17:49:49;;;;;;;6.63;3.77;;;17.10;92.70;;;;;;4927330;29;20208;-73
2022/04/28 17:52:16;;;;;;;6.10;3.20;;;17.10;92.90;;;;;;4923359;29;20235;-72
2022/04/28 17:59:52;;;;;;;6.80;3.50;;;16.90;93.00;;;;;;4925167;29;20225;-75
2022/04/28 18:00:16;;;;;;;9.60;3.30;;;16.90;92.70;;;;;;4934921;29;20216;-75
2022/04/28 18:02:43;;;;;;;9.27;3.00;;;16.70;93.00;;;;;;4931216;29;20208;-77
2022/04/28 18:05:10;;;;;;;6.70;3.20;;;16.60;93.30;;;;;;4934891;29;20232;-76
2022/04/28 18:07:39;;;;;;;5.83;3.20;;;16.70;93.30;;;;;;4935787;29;20208;-77
2022/04/28 18:10:06;;;;;;;5.80;3.30;;;16.70;93.50;;;;;;4935000;29;20545;-75
2022/04/28 18:12:36;;;;;;;4.93;3.47;;;16.60;93.50;;;;;;4951390;29;20330;-75
2022/04/28 18:15:04;;;;;;;7.90;3.17;;;16.60;93.10;;;;;;4954751;28;20228;-76
2022/04/28 18:17:31;;;;;;;5.30;3.00;;;16.60;93.10;;;;;;4954317;28;20298;-76
2022/04/28 18:19:58;;;;;;;5.93;2.60;;;16.50;93.20;;;;;;4943062;28;20280;-77
2022/04/28 18:22:25;;;;;;;6.90;3.50;;;16.40;93.30;;;;;;4935108;29;20620;-76
2022/04/28 18:24:52;;;;;;;5.40;3.07;;;16.30;93.60;;;;;;4935432;28;20231;-76
2022/04/28 18:27:19;;;;;;;5.37;2.40;;;16.20;93.60;;;;;;4935502;29;20216;-76
2022/04/28 18:29:47;;;;;;;4.53;2.67;;;16.20;93.80;;;;;;4934815;29;20213;-76
2022/04/28 18:32:14;;;;;;;5.97;2.90;;;16.20;93.80;;;;;;4934218;29;20239;-76
2022/04/28 18:34:41;;;;;;;10.30;3.60;;;16.20;93.70;;;;;;4935329;29;20239;-76
2022/04/28 18:45:26;;;;;;;6.47;2.57;;;15.90;93.70;;;;;;4875611;29;20235;-76
2022/04/28 18:47:54;;;;;;;5.47;2.70;;;16.00;93.60;;;;;;4928333;29;20672;-76
2022/04/28 18:50:21;;;;;;;3.70;2.40;;;16.00;93.60;;;;;;4922543;29;20205;-74
2022/04/28 18:52:48;;;;;;;7.10;2.57;;;15.90;93.60;;;;;;4925611;29;20253;-75
2022/04/28 18:55:15;;;;;;;7.17;2.70;;;15.90;93.40;;;;;;4925143;29;20299;-75
2022/04/28 18:57:41;;;;;;;4.20;2.70;;;15.80;93.60;;;;;;4933821;29;20208;-75
2022/04/28 19:00:10;;;;;;;4.03;2.03;;;15.60;93.80;;;;;;4920533;29;20210;-75
2022/04/28 19:02:38;;;;;;;4.27;2.17;;;15.50;93.90;;;;;;4932391;29;20256;-74
2022/04/28 19:05:05;;;;;;;5.23;2.87;;;15.40;93.70;;;;;;4922107;29;20228;-75
2022/04/28 19:07:33;;;;;;;4.40;2.30;;;15.30;93.90;;;;;;4923768;29;20210;-76
2022/04/28 19:10:00;;;;;;;4.70;2.37;;;15.20;93.90;;;;;;4929247;29;20212;-75
2022/04/28 19:12:28;;;;;;;3.47;1.83;;;15.30;93.80;;;;;;4919176;29;20239;-74
2022/04/28 19:15:01;;;;;;;7.10;2.27;;;15.30;93.80;;;;;;4929815;29;20308;-73
2022/04/28 19:17:29;;;;;;;3.97;2.40;;;15.30;93.80;;;;;;4924766;29;20212;-75
2022/04/28 19:20:01;;;;;;;6.57;2.93;;;15.40;93.50;;;;;;4921421;29;20669;-75
2022/04/28 19:22:29;;;;;;;5.10;2.13;;;15.40;93.50;;;;;;4932485;29;20249;-74
2022/04/28 19:24:57;;;;;;;3.07;1.90;;;15.30;93.70;;;;;;4923535;29;20246;-75
2022/04/28 19:27:25;;;;;;;3.97;1.93;;;15.10;93.90;;;;;;4922628;29;20260;-73
2022/04/28 19:29:53;;;;;;;5.43;2.60;;;15.00;94.20;;;;;;4937052;29;20289;-73
2022/04/28 19:32:20;;;;;;;4.73;1.93;;;14.80;94.30;;;;;;4928808;29;20304;-74
2022/04/28 19:34:50;;;;;;;4.97;2.27;;;14.90;94.00;;;;;;4931449;29;20225;-73
2022/04/28 19:37:18;;;;;;;4.63;2.07;;;14.90;94.50;;;;;;4926198;29;20221;-73
2022/04/28 19:39:47;;;;;;;8.30;2.30;;;14.70;94.40;;;;;;4933406;29;20268;-72
2022/04/28 19:42:14;;;;;;;6.00;2.00;;;14.70;94.50;;;;;;4921106;29;20236;-74
2022/04/28 19:44:42;;;;;;;6.50;2.20;;;14.50;94.40;;;;;;4936267;29;20715;-74
2022/04/28 19:47:09;;;;;;;5.53;2.07;;;14.50;94.70;;;;;;4927057;29;20261;-72
2022/04/28 19:49:37;;;;;;;4.93;2.37;;;14.40;94.80;;;;;;4931651;29;20209;-73
2022/04/28 19:52:05;;;;;;;4.43;2.17;;;14.30;94.90;;;;;;4921483;29;20931;-73
2022/04/28 19:54:33;;;;;;;5.67;2.40;;;14.20;95.10;;;;;;4931897;29;20226;-74
2022/04/28 19:57:00;;;;;;;6.87;2.33;;;14.10;95.10;;;;;;4925599;29;20291;-73
2022/04/28 19:59:27;;;;;;;6.70;1.97;;;14.10;95.20;;;;;;4925343;29;20210;-73
2022/04/28 20:01:55;;;;;;;6.70;2.50;;;14.10;95.20;;;;;;4933355;29;20755;-72
2022/04/28 20:04:22;;;;;;;5.17;2.10;;;14.20;95.20;;;;;;4921818;29;20228;-73
2022/04/28 20:06:49;;;;;;;4.00;2.20;;;14.20;95.00;;;;;;4929397;29;20206;-73
2022/04/28 20:09:17;;;;;;;4.37;2.20;;;14.20;95.10;;;;;;4928867;29;20201;-72
2022/04/28 20:11:45;;;;;;;8.57;2.73;;;14.20;95.20;;;;;;4922506;29;20213;-73
2022/04/28 20:14:13;;;;;;;5.40;2.37;;;14.40;94.80;;;;;;4932746;29;20324;-72
2022/04/28 20:16:42;;;;;;;3.13;2.00;;;14.50;94.90;;;;;;4922766;29;20248;-75
2022/04/28 20:19:09;;;;;;;4.97;2.30;;;14.60;94.70;;;;;;4926050;29;21163;-72
2022/04/28 20:21:36;;;;;;;4.53;2.47;;;14.60;94.50;;;;;;4932603;29;20201;-72
2022/04/28 20:24:05;;;;;;;4.53;2.20;;;14.40;94.80;;;;;;4920864;29;20293;-73
2022/04/28 20:26:32;;;;;;;4.17;2.20;;;14.20;95.20;;;;;;4931577;29;20205;-72
2022/04/28 20:29:01;;;;;;;4.90;2.20;;;13.90;95.60;;;;;;4926272;29;20209;-74
2022/04/28 20:31:28;;;;;;;5.13;2.27;;;14.00;95.70;;;;;;4924669;29;20202;-73
2022/04/28 20:33:55;;;;;;;5.37;2.30;;;14.00;95.80;;;;;;4932497;29;20243;-72
2022/04/28 20:36:22;;;;;;;4.57;2.10;;;14.10;96.00;;;;;;4921516;29;20240;-72
2022/04/28 20:38:48;;;;;;;4.10;2.03;;;14.10;96.00;;;;;;4930203;29;20201;-72
2022/04/28 20:41:18;;;;;;;3.87;2.10;;;14.00;96.20;;;;;;4925135;29;20222;-73
2022/04/28 20:43:45;;;;;;;5.57;2.67;;;14.00;96.40;;;;;;4927665;29;20228;-72
2022/04/28 20:46:13;;;;;;;7.43;2.70;;;13.80;96.70;;;;;;4925008;29;20296;-72
2022/04/28 20:48:41;;;;;;;4.40;2.80;;;13.90;97.20;;;;;;4925043;29;20202;-74
2022/04/28 20:51:07;;;;;;;5.03;2.57;;;13.90;96.90;;;;;;4925720;29;20245;-72
2022/04/28 20:53:35;;;;;;;4.13;2.30;;;13.90;97.00;;;;;;4920531;29;20237;-73
2022/04/28 20:56:02;;;;;;;5.53;2.40;;;13.70;97.70;;;;;;4932230;29;20572;-72
2022/04/28 20:58:29;;;;;;;3.93;2.47;;;13.70;97.80;;;;;;4935792;29;20201;-73
2022/04/28 21:00:55;;;;;;;5.80;2.77;;;13.70;97.90;;;;;;4927901;29;20208;-73
2022/04/28 21:03:24;;;;;;;4.67;2.50;;;13.70;98.10;;;;;;4928146;29;20253;-73
2022/04/28 21:05:52;;;;;;;7.63;3.10;;;13.60;98.40;;;;;;4920692;29;20206;-73
2022/04/28 21:08:18;;;;;;;5.47;2.40;;;13.60;98.90;;;;;;4930872;29;20201;-73
2022/04/28 21:10:46;;;;;;;5.03;3.03;;;13.70;98.90;;;;;;4936093;29;20204;-72
2022/04/28 21:13:13;;;;;;;5.50;2.90;;;13.60;99.20;;;;;;4923865;29;20230;-73
2022/04/28 21:15:40;;;;;;;5.50;2.70;;;13.40;99.70;;;;;;4934653;29;20220;-73
2022/04/28 21:18:08;;;;;;;5.53;3.47;;;13.40;99.90;;;;;;4934323;29;20302;-73
2022/04/28 21:20:36;;;;;;;5.03;3.03;;;13.40;99.90;;;;;;4923345;29;20233;-73
2022/04/28 21:23:03;;;;;;;4.10;2.53;;;13.40;99.90;;;;;;4925171;29;20567;-73
2022/04/28 21:25:30;;;;;;;6.73;2.90;;;13.40;99.90;;;;;;4922349;29;20202;-74
2022/04/28 21:27:58;;;;;;;5.83;2.50;;;13.20;99.90;;;;;;4932894;29;20205;-73
2022/04/28 21:30:26;;;;;;;5.83;2.60;;;13.00;99.90;;;;;;4925058;29;20208;-73
2022/04/28 21:32:53;;;;;;;5.07;2.90;;;12.90;99.90;;;;;;4932676;29;20231;-72
2022/04/28 21:35:20;;;;;;;6.67;2.83;;;12.80;99.90;;;;;;4926832;29;20281;-73
2022/04/28 21:37:49;;;;;;;7.60;2.93;;;12.70;99.90;;;;;;4930960;29;20224;-74
2022/04/28 21:40:19;;;;;;;5.27;2.60;;;12.50;99.90;;;;;;4932020;29;20206;-73
2022/04/28 21:42:47;;;;;;;5.97;2.80;;;12.60;99.90;;;;;;4927989;29;20208;-73
2022/04/28 21:45:14;;;;;;;7.37;3.20;;;12.50;99.90;;;;;;4925522;29;20616;-73
2022/04/28 21:47:41;;;;;;;4.83;2.90;;;12.50;99.90;;;;;;4930318;29;20201;-72
2022/04/28 21:50:09;;;;;;;4.93;2.83;;;12.50;99.90;;;;;;4934107;29;20205;-72
2022/04/28 21:52:36;;;;;;;5.50;3.00;;;12.60;99.90;;;;;;4929934;29;20209;-73
2022/04/28 21:55:05;;;;;;;5.47;3.30;;;12.50;99.90;;;;;;4925039;29;20224;-73
2022/04/28 21:57:35;;;;;;;4.53;2.80;;;12.50;99.90;;;;;;4927470;29;20675;-73
2022/04/28 22:00:07;;;;;;;8.33;3.20;;;12.50;99.90;;;;;;4927861;29;20236;-74
2022/04/28 22:02:36;;;;;;;7.83;2.70;;;12.50;99.90;;;;;;4920415;29;20223;-73
2022/04/28 22:13:21;;;;;;;5.97;2.87;;;12.20;99.90;;;;;;4923161;29;20247;-73
2022/04/28 22:15:48;;;;;;;7.20;3.30;;;12.20;99.90;;;;;;4930926;29;20211;-74
2022/04/28 22:18:16;;;;;;;7.77;2.90;;;12.20;99.90;;;;;;4923318;29;20214;-73